CST,Max TemperatureF,Mean TemperatureF,Min TemperatureF,Max Dew PointF,MeanDew PointF,Min DewpointF,Max Humidity, Mean Humidity, Min Humidity, Max Sea Level PressureIn, Mean Sea Level PressureIn, Min Sea Level PressureIn, Max VisibilityMiles, Mean VisibilityMiles, Min VisibilityMiles, Max Wind SpeedMPH, Mean Wind SpeedMPH, Max Gust SpeedMPH,PrecipitationIn, CloudCover, Events, WindDirDegrees
2014-2-1,20,11,1,15,6,-5,91,82,73,30.28,30.05,29.94,10,6,1,23,10,29,0.02,5,Snow,221
2014-2-2,12,1,-10,3,-4,-12,95,81,67,30.40,30.35,30.26,10,10,10,16,7,19,0.00,0,,240
2014-2-3,18,6,-6,11,3,-9,92,83,73,30.37,30.32,30.28,10,10,9,13,6,15,0.00,2,,205
2014-2-4,14,9,4,8,3,-3,84,74,64,30.45,30.40,30.33,10,10,9,24,14,28,T,6,,11
2014-2-5,5,0,-5,0,-5,-10,87,78,68,30.61,30.48,30.35,10,5,1,30,20,35,T,6,Snow,330
2014-2-6,5,-3,-11,-3,-8,-15,86,78,69,30.58,30.47,30.34,10,10,9,21,13,27,0.00,2,,272
2014-2-7,14,4,-7,5,-3,-12,86,75,64,30.38,30.29,30.19,10,10,10,20,11,22,0.00,1,,229
2014-2-8,14,3,-8,8,5,-8,92,86,79,30.24,30.13,30.05,10,5,0,12,6,13,0.05,5,Fog-Snow,176
2014-2-9,6,-1,-8,2,-7,-12,100,84,68,30.48,30.35,30.16,10,10,6,22,13,25,0.00,1,,303
2014-2-10,1,-7,-15,-8,-13,-19,87,76,65,30.57,30.54,30.48,10,10,10,17,8,20,0.00,0,,300
2014-2-11,13,-3,-20,6,-6,-23,100,85,69,30.56,30.37,30.11,10,10,2,22,12,28,0.00,3,,174
2014-2-12,22,13,3,15,10,6,100,88,76,30.15,30.06,29.84,10,6,0,22,8,28,0.01,5,Fog-Snow,191
2014-2-13,36,21,6,28,13,2,92,80,68,29.87,29.71,29.56,10,8,6,37,20,44,0.00,4,,271
2014-2-14,13,8,2,6,3,-1,88,81,73,30.12,29.94,29.74,10,8,1,23,14,26,T,4,Snow,322
2014-2-15,23,9,-5,20,10,-7,95,86,76,30.10,29.92,29.79,10,6,0,28,13,32,0.04,6,Fog-Snow,177
2014-2-16,20,15,9,16,12,6,92,83,74,30.27,30.16,30.02,10,9,6,26,13,33,0.00,5,,14
2014-2-17,35,27,19,29,21,15,92,84,75,30.03,29.80,29.69,10,4,0,30,18,37,0.30,5,Fog-Snow,194
2014-2-18,40,30,20,33,26,15,92,78,64,29.84,29.70,29.59,10,10,10,24,11,28,0.01,1,Rain,247
2014-2-19,42,33,24,35,29,22,100,85,70,29.90,29.84,29.71,10,10,0,20,11,24,T,0,Fog,224
2014-2-20,35,28,21,34,30,19,100,91,82,29.69,29.43,29.24,10,2,0,46,17,55,0.49,8,Fog-Snow-Thunderstorm,8
2014-2-21,20,14,8,14,10,6,92,80,67,29.89,29.66,29.44,10,4,0,37,22,46,0.05,0,Fog-Snow,277
2014-2-22,17,10,2,9,5,0,95,81,67,30.22,30.07,29.91,10,10,10,20,10,22,0.00,1,,288
2014-2-23,15,6,-3,7,2,-4,95,81,67,30.37,30.33,30.23,10,10,10,20,13,22,0.00,0,,288
2014-2-24,12,7,1,6,2,-3,87,77,66,30.43,30.37,30.29,10,7,2,18,11,23,0.06,4,Snow,317
2014-2-25,7,1,-6,3,-5,-11,91,80,68,30.45,30.38,30.27,10,8,2,26,17,33,T,2,Snow,311
2014-2-26,17,2,-13,11,-1,-15,86,78,69,30.43,30.01,29.73,10,6,0,33,19,41,T,1,Fog-Snow,276
2014-2-27,4,-3,-11,-7,-16,-21,86,69,51,30.27,30.18,30.00,10,10,8,31,11,37,T,0,,351
2014-2-28,19,4,-11,15,6,-18,92,78,64,30.17,30.01,29.91,10,6,1,24,14,28,0.07,6,Snow,280